Hoxie, Kansas
Current Conditions -  °F | °C
As of 3:53 AM on Friday 31 Oct 2014 (Local Time) from KHLC Reporting Station
Clear Clear  
Wind Chill: 31°   Ceiling: Unl
Heat Index: 35°   Visibility: 10mi
Dew Point: 30°   Wind: 5mph
Humidity: 82%   Direction: 40°NE
Pressure: 30.48"   Gusts: NA
Location:  39.36°N, 100.44°W
Report Text: KHLC 310853Z AUTO 04004KT 10SM CLR 02/M01 A3048 RMK AO2 SLP320 T00171011 51018
Loading
Personal Weather Stations






























Interactive Weather Map
Tropical Storm Tracking
New forecast layout! Learn more

10-Day Weather Forecast

Advertisements
Track Severe Weather on mobile